Time;durP1;ratioP1;P1;durP2;ratioP2;P2;SDS_P1;SDS_P2;PMS_P1;PMS_P2;Temp;Humidity;BMP_temperature;BMP_pressure;BME280_temperature;BME280_humidity;BME280_pressure;Samples;Min_cycle;Max_cycle;Signal;HPM_P1;HPM_P2
2021/07/24 00:01:11;;;;;;;18.52;10.35;;;;;;;18.13;66.90;101145.16;5072383;28;20518;-58
2021/07/24 00:03:40;;;;;;;15.23;10.55;;;;;;;18.12;66.95;101149.88;5072118;28;20044;-59
2021/07/24 00:06:07;;;;;;;15.23;10.18;;;;;;;18.17;66.82;101144.22;5071936;28;20041;-57
2021/07/24 00:08:35;;;;;;;25.83;10.35;;;;;;;18.17;66.69;101146.97;5071412;28;20044;-58
2021/07/24 00:11:04;;;;;;;15.77;9.63;;;;;;;18.12;67.05;101136.06;5072417;28;20047;-58
2021/07/24 00:13:34;;;;;;;17.42;10.48;;;;;;;18.10;66.99;101138.31;5072675;28;20067;-59
2021/07/24 00:16:03;;;;;;;13.85;9.30;;;;;;;18.18;66.74;101147.78;5071993;28;20059;-58
2021/07/24 00:18:31;;;;;;;15.10;10.35;;;;;;;18.17;66.85;101141.47;5072239;28;20047;-58
2021/07/24 00:20:59;;;;;;;14.68;9.93;;;;;;;18.15;67.02;101146.47;5071476;28;20499;-59
2021/07/24 00:23:27;;;;;;;13.35;9.40;;;;;;;18.11;67.25;101139.94;5072081;28;20056;-58
2021/07/24 00:25:55;;;;;;;14.23;8.82;;;;;;;18.12;67.17;101141.59;5072843;28;20040;-58
2021/07/24 00:28:22;;;;;;;14.65;10.15;;;;;;;18.12;67.24;101141.59;5072136;28;20144;-58
2021/07/24 00:30:50;;;;;;;13.93;9.30;;;;;;;17.97;67.69;101128.16;5071986;28;20040;-59
2021/07/24 00:33:25;;;;;;;18.88;11.32;;;;;;;17.92;67.95;101136.53;5054230;28;20041;-58
2021/07/24 00:35:55;;;;;;;14.90;10.50;;;;;;;17.91;67.91;101130.19;5053460;28;20094;-58
2021/07/24 00:38:24;;;;;;;15.95;9.77;;;;;;;17.90;68.26;101130.53;5071706;28;20491;-59
2021/07/24 00:40:55;;;;;;;14.15;9.38;;;;;;;17.97;67.83;101130.91;5072009;28;20051;-58
2021/07/24 00:43:30;;;;;;;16.00;10.00;;;;;;;18.03;67.79;101132.41;5053822;28;20040;-58
2021/07/24 00:45:58;;;;;;;15.27;10.30;;;;;;;18.01;67.89;101132.72;5054152;28;20052;-59
2021/07/24 00:48:28;;;;;;;16.50;10.23;;;;;;;18.06;67.46;101129.03;5054079;28;20135;-59
2021/07/24 00:51:12;;;;;;;15.48;10.82;;;;;;;18.02;67.57;101126.09;5056254;28;20166;-58
2021/07/24 00:53:40;;;;;;;17.25;10.63;;;;;;;18.03;67.57;101121.38;5071880;28;20051;-58
2021/07/24 00:56:07;;;;;;;14.70;10.65;;;;;;;18.03;67.47;101113.94;5055140;28;20376;-58
2021/07/24 00:58:36;;;;;;;16.98;10.57;;;;;;;17.96;67.90;101109.97;5075521;28;20123;-58
2021/07/24 01:01:05;;;;;;;15.35;10.25;;;;;;;17.98;67.77;101103.00;5075278;28;20040;-58
2021/07/24 01:03:33;;;;;;;16.02;11.02;;;;;;;17.96;67.73;101107.22;5057117;28;20056;-59
2021/07/24 01:06:01;;;;;;;15.15;9.77;;;;;;;17.96;67.98;101104.47;5057339;28;20041;-58
2021/07/24 01:08:31;;;;;;;15.95;10.43;;;;;;;17.93;67.87;101102.34;5057808;28;20510;-58
2021/07/24 01:11:02;;;;;;;14.60;10.18;;;;;;;17.85;68.08;101095.63;5041243;28;20053;-58
2021/07/24 01:13:30;;;;;;;14.85;9.63;;;;;;;17.73;68.74;101084.28;5090690;28;20128;-58
2021/07/24 01:15:58;;;;;;;15.13;10.90;;;;;;;17.77;68.60;101074.25;5075235;28;20052;-59
2021/07/24 01:18:32;;;;;;;15.30;10.55;;;;;;;17.79;68.58;101067.31;5089970;28;20379;-58
2021/07/24 01:21:05;;;;;;;15.18;10.60;;;;;;;17.71;68.73;101059.78;5057317;28;20468;-58
2021/07/24 01:23:38;;;;;;;14.15;10.25;;;;;;;17.61;69.22;101049.81;5041747;28;20542;-58
2021/07/24 01:26:07;;;;;;;16.92;10.60;;;;;;;17.58;69.46;101057.88;5075330;28;20044;-58
2021/07/24 01:28:37;;;;;;;19.48;10.80;;;;;;;17.63;69.28;101064.09;5057809;28;20059;-59
2021/07/24 01:31:07;;;;;;;14.93;10.70;;;;;;;17.64;69.07;101056.63;5075602;28;20041;-58
2021/07/24 01:33:40;;;;;;;18.98;11.30;;;;;;;17.56;69.35;101051.88;5074179;28;20536;-58
2021/07/24 01:36:09;;;;;;;14.20;9.82;;;;;;;17.51;69.35;101051.97;5075917;28;20048;-58
2021/07/24 01:38:39;;;;;;;15.07;10.45;;;;;;;17.50;69.55;101051.16;5058212;28;20045;-59
2021/07/24 01:41:11;;;;;;;15.07;10.57;;;;;;;17.51;69.69;101047.28;5058007;28;20072;-58
2021/07/24 01:43:42;;;;;;;13.75;8.77;;;;;;;17.63;69.21;101057.75;5074466;28;20048;-59
2021/07/24 01:46:12;;;;;;;14.02;10.30;;;;;;;17.75;68.75;101060.81;5075589;28;20057;-59
2021/07/24 01:54:51;;;;;;;15.70;10.65;;;;;;;17.65;68.74;101050.00;5060311;28;20556;-59
2021/07/24 01:57:20;;;;;;;15.77;10.65;;;;;;;17.59;69.10;101057.56;5075003;28;20049;-59
2021/07/24 01:59:58;;;;;;;16.50;11.32;;;;;;;17.54;69.39;101054.13;5072895;28;20064;-59
2021/07/24 02:02:26;;;;;;;14.95;10.95;;;;;;;17.57;69.40;101042.47;5090283;28;20048;-58
2021/07/24 02:04:57;;;;;;;17.35;11.30;;;;;;;17.59;69.25;101042.97;5057469;28;20144;-59
2021/07/24 02:07:29;;;;;;;13.77;10.25;;;;;;;17.58;69.42;101044.94;5073367;28;20067;-59
2021/07/24 02:09:58;;;;;;;17.80;11.25;;;;;;;17.64;69.12;101053.88;5057392;28;20402;-57
2021/07/24 02:12:38;;;;;;;16.73;10.70;;;;;;;17.65;69.10;101047.22;5057658;28;20449;-59
2021/07/24 02:15:07;;;;;;;15.80;11.45;;;;;;;17.63;68.95;101057.75;5057817;28;20082;-59
2021/07/24 02:17:38;;;;;;;18.15;12.90;;;;;;;17.55;69.27;101042.78;5056676;28;20036;-58
2021/07/24 02:20:08;;;;;;;15.98;10.93;;;;;;;17.43;69.69;101037.78;5057069;28;20131;-58
2021/07/24 02:22:35;;;;;;;18.27;12.98;;;;;;;17.33;70.15;101032.50;5090283;28;20518;-58
2021/07/24 02:25:04;;;;;;;15.25;10.45;;;;;;;17.31;70.20;101031.19;5056844;28;20048;-58
2021/07/24 02:27:33;;;;;;;17.05;11.25;;;;;;;17.29;70.57;101023.22;5056166;28;20052;-58
2021/07/24 02:30:03;;;;;;;16.75;11.82;;;;;;;17.32;70.29;101030.06;5056265;28;20059;-58
2021/07/24 02:32:31;;;;;;;17.23;10.40;;;;;;;17.37;70.25;101022.50;5056265;28;20403;-58
2021/07/24 02:34:58;;;;;;;20.80;10.68;;;;;;;17.41;70.03;101018.03;5042592;28;20039;-59
2021/07/24 02:37:26;;;;;;;17.92;11.05;;;;;;;17.36;69.91;101014.56;5074261;28;20475;-59
2021/07/24 02:39:54;;;;;;;16.98;11.10;;;;;;;17.26;70.46;101010.09;5073409;28;20495;-58
2021/07/24 02:42:23;;;;;;;20.23;11.32;;;;;;;17.22;70.36;101000.78;5057794;28;20048;-58
2021/07/24 02:44:52;;;;;;;18.80;11.65;;;;;;;17.24;70.71;100995.81;5074983;28;20062;-58
2021/07/24 02:47:20;;;;;;;15.90;11.32;;;;;;;17.28;70.25;100990.50;5056486;28;20056;-56
2021/07/24 02:49:52;;;;;;;16.63;10.10;;;;;;;17.25;70.47;100983.69;5056428;28;20047;-58
2021/07/24 02:52:20;;;;;;;17.08;11.98;;;;;;;17.24;70.46;100979.28;5074164;28;20051;-58
2021/07/24 02:54:48;;;;;;;17.08;12.30;;;;;;;17.26;70.46;100982.53;5090133;28;20078;-58
2021/07/24 02:57:16;;;;;;;16.58;11.15;;;;;;;17.25;70.24;100975.41;5056366;28;20044;-58
2021/07/24 02:59:44;;;;;;;18.48;11.55;;;;;;;17.20;70.55;100976.34;5073874;28;20048;-60
2021/07/24 03:02:17;;;;;;;17.42;12.52;;;;;;;17.11;70.81;100971.88;5072601;28;20052;-58
2021/07/24 03:04:47;;;;;;;16.77;12.45;;;;;;;16.95;71.49;100949.34;5073672;28;20123;-59
2021/07/24 03:07:15;;;;;;;17.88;11.32;;;;;;;16.79;72.48;100937.88;5056032;28;20048;-59
2021/07/24 03:09:43;;;;;;;18.52;11.73;;;;;;;16.80;72.08;100925.72;5073828;28;20036;-59
2021/07/24 03:12:11;;;;;;;17.60;11.98;;;;;;;16.72;72.54;100920.94;5073499;28;20059;-58
2021/07/24 03:14:38;;;;;;;17.40;11.60;;;;;;;16.77;72.39;100924.38;5073440;28;20483;-59
2021/07/24 03:17:06;;;;;;;17.17;11.35;;;;;;;16.79;72.39;100924.91;5073251;28;20071;-58
2021/07/24 03:19:33;;;;;;;15.38;10.57;;;;;;;16.81;72.01;100919.94;5073150;28;20415;-58
2021/07/24 03:22:01;;;;;;;16.77;10.10;;;;;;;16.75;72.23;100928.56;5073350;28;20075;-58
2021/07/24 03:24:28;;;;;;;17.30;12.13;;;;;;;16.76;72.40;100919.16;5073491;28;20036;-58
2021/07/24 03:26:56;;;;;;;16.73;10.45;;;;;;;16.81;72.33;100916.34;5073811;28;20048;-58
2021/07/24 03:29:23;;;;;;;18.08;11.63;;;;;;;16.79;72.08;100902.09;5072390;28;20102;-59
2021/07/24 03:31:51;;;;;;;19.00;12.20;;;;;;;16.74;72.51;100897.47;5073355;28;20055;-59
2021/07/24 03:34:19;;;;;;;18.20;12.88;;;;;;;16.82;72.28;100906.97;5073010;28;20045;-58
2021/07/24 03:36:46;;;;;;;18.98;12.02;;;;;;;16.83;71.93;100908.59;5073549;28;20040;-60
2021/07/24 03:39:14;;;;;;;18.08;11.60;;;;;;;16.85;71.71;100906.34;5073864;28;20040;-60
2021/07/24 03:41:41;;;;;;;15.93;10.93;;;;;;;16.81;71.88;100913.59;5073382;28;20515;-60
2021/07/24 03:44:09;;;;;;;17.00;11.98;;;;;;;16.80;72.23;100914.72;5072897;28;20131;-59
2021/07/24 03:46:37;;;;;;;14.73;10.77;;;;;;;16.90;71.62;100911.75;5073726;28;20098;-60
2021/07/24 03:49:04;;;;;;;16.85;11.75;;;;;;;16.78;72.02;100916.94;5072807;28;20574;-60
2021/07/24 03:51:32;;;;;;;18.30;12.55;;;;;;;16.75;72.31;100918.34;5073519;28;20037;-60
2021/07/24 03:53:59;;;;;;;16.65;11.82;;;;;;;16.76;72.16;100933.75;5073024;28;20041;-60
2021/07/24 03:56:27;;;;;;;16.27;11.60;;;;;;;16.81;72.63;100941.09;5073170;28;20147;-58
2021/07/24 03:58:54;;;;;;;18.23;12.50;;;;;;;16.81;71.99;100939.19;5072607;28;20128;-60
2021/07/24 04:01:25;;;;;;;16.67;11.95;;;;;;;16.86;72.26;100935.53;5073447;28;20055;-60
2021/07/24 04:03:53;;;;;;;14.70;11.02;;;;;;;16.85;72.20;100931.13;5073072;28;20082;-60
2021/07/24 04:06:23;;;;;;;16.83;11.85;;;;;;;16.88;72.04;100937.94;5073350;28;20032;-58
2021/07/24 04:08:52;;;;;;;18.60;12.68;;;;;;;16.87;72.18;100939.88;5088330;28;20259;-58
2021/07/24 04:11:20;;;;;;;17.70;11.77;;;;;;;16.89;71.98;100943.16;5073287;28;20044;-61
2021/07/24 04:13:48;;;;;;;20.13;13.18;;;;;;;16.92;71.87;100945.28;5072700;28;20501;-58
2021/07/24 04:16:16;;;;;;;17.05;12.35;;;;;;;16.97;71.58;100949.88;5072898;28;20064;-58
2021/07/24 04:18:44;;;;;;;16.33;11.35;;;;;;;16.95;71.61;100954.84;5073402;28;20525;-58
2021/07/24 04:21:13;;;;;;;18.65;12.50;;;;;;;16.91;71.84;100976.69;5072907;28;20040;-58
2021/07/24 04:23:40;;;;;;;17.08;10.95;;;;;;;16.95;71.79;100974.13;5073040;28;20519;-59
2021/07/24 04:26:08;;;;;;;14.48;9.90;;;;;;;17.01;71.50;100976.47;5072819;28;20051;-58
2021/07/24 04:28:37;;;;;;;16.50;11.88;;;;;;;16.98;71.60;100977.09;5035200;28;20068;-58
2021/07/24 04:31:09;;;;;;;19.90;11.23;;;;;;;16.91;71.96;100982.19;5072677;28;20112;-59
2021/07/24 04:33:37;;;;;;;13.77;9.25;;;;;;;16.92;72.08;100985.75;5091699;28;20055;-63
2021/07/24 04:36:04;;;;;;;15.85;10.38;;;;;;;17.04;71.91;100986.06;5075627;28;20071;-58
2021/07/24 04:38:32;;;;;;;13.68;9.25;;;;;;;17.17;71.45;100962.38;5075872;28;20495;-55
2021/07/24 04:41:00;;;;;;;14.55;10.32;;;;;;;17.20;70.78;100940.53;5075245;28;20517;-57
2021/07/24 04:43:28;;;;;;;15.93;10.98;;;;;;;17.17;71.00;100924.66;5075042;28;20042;-57
2021/07/24 04:45:55;;;;;;;16.35;10.48;;;;;;;17.16;70.89;100922.19;5075296;28;20120;-59
2021/07/24 04:48:23;;;;;;;15.23;10.55;;;;;;;17.14;71.31;100899.66;5075288;28;20468;-58
2021/07/24 04:50:54;;;;;;;16.65;11.27;;;;;;;17.13;71.46;100895.28;5075672;28;20427;-58
2021/07/24 04:53:22;;;;;;;14.20;9.43;;;;;;;17.19;71.28;100902.28;5082166;28;20044;-57
2021/07/24 04:55:50;;;;;;;19.17;10.15;;;;;;;17.26;71.18;100919.19;5075630;28;20045;-54
2021/07/24 04:58:18;;;;;;;15.80;10.35;;;;;;;17.30;70.71;100927.69;5057369;28;20048;-55
2021/07/24 05:00:46;;;;;;;15.30;10.43;;;;;;;17.33;70.57;100933.34;5057927;28;20074;-55
2021/07/24 05:03:15;;;;;;;14.38;9.43;;;;;;;17.35;70.68;100946.84;5075662;28;20032;-55
2021/07/24 05:05:43;;;;;;;16.35;10.68;;;;;;;17.37;70.49;100945.41;5075408;28;20060;-59
2021/07/24 05:08:12;;;;;;;15.60;10.00;;;;;;;17.39;70.40;100937.63;5075031;28;20048;-56
2021/07/24 05:10:41;;;;;;;15.82;10.82;;;;;;;17.41;70.64;100946.41;5074972;28;20487;-58
2021/07/24 05:13:09;;;;;;;14.75;9.98;;;;;;;17.40;70.65;100939.25;5074994;28;20551;-56
2021/07/24 05:15:39;;;;;;;18.23;11.15;;;;;;;17.38;70.63;100940.69;5074462;28;20376;-59
2021/07/24 05:18:08;;;;;;;14.10;10.43;;;;;;;17.40;70.57;100943.97;5074845;28;20040;-57
2021/07/24 05:20:36;;;;;;;17.05;9.90;;;;;;;17.42;70.61;100942.50;5074718;28;20486;-58
2021/07/24 05:23:03;;;;;;;13.57;9.57;;;;;;;17.45;70.30;100938.31;5074471;28;20041;-58
2021/07/24 05:25:31;;;;;;;16.77;10.15;;;;;;;17.50;70.32;100935.44;5074244;28;20056;-57
2021/07/24 05:28:02;;;;;;;14.88;9.98;;;;;;;17.53;70.05;100936.75;5074249;28;20040;-57
2021/07/24 05:30:30;;;;;;;15.68;10.70;;;;;;;17.52;70.18;100941.47;5074616;28;20071;-59
2021/07/24 05:32:58;;;;;;;15.40;10.27;;;;;;;17.54;70.02;100943.91;5089586;28;20028;-58
2021/07/24 05:35:25;;;;;;;14.88;10.52;;;;;;;17.50;70.30;100938.19;5074217;28;20048;-59
2021/07/24 05:37:53;;;;;;;14.65;9.98;;;;;;;17.46;70.48;100926.16;5074046;28;20074;-56
2021/07/24 05:40:21;;;;;;;14.15;9.95;;;;;;;17.46;70.64;100927.00;5072926;28;20087;-57
2021/07/24 05:42:48;;;;;;;15.75;10.18;;;;;;;17.44;70.66;100917.44;5073933;28;20044;-59
2021/07/24 05:45:16;;;;;;;16.60;10.55;;;;;;;17.44;70.68;100923.75;5073929;28;20040;-55
2021/07/24 05:47:44;;;;;;;14.18;9.75;;;;;;;17.45;70.75;100910.78;5074270;28;20495;-58
2021/07/24 05:50:11;;;;;;;17.00;10.18;;;;;;;17.50;70.53;100904.34;5074124;28;20106;-56
2021/07/24 05:52:39;;;;;;;16.13;10.40;;;;;;;17.51;70.50;100900.44;5074176;28;20090;-57
2021/07/24 05:55:07;;;;;;;16.63;10.82;;;;;;;17.53;70.73;100889.94;5073470;28;20487;-59
2021/07/24 05:57:37;;;;;;;17.00;10.55;;;;;;;17.57;70.41;100888.97;5074143;28;20048;-58
2021/07/24 06:00:08;;;;;;;14.32;9.50;;;;;;;17.58;70.21;100887.88;5073877;28;20041;-56
2021/07/24 06:02:42;;;;;;;19.10;11.00;;;;;;;17.59;70.74;100885.94;5074193;28;20233;-60
2021/07/24 06:05:10;;;;;;;15.60;9.90;;;;;;;17.60;70.79;100885.59;5073674;28;20090;-55
2021/07/24 06:07:38;;;;;;;16.45;10.52;;;;;;;17.64;70.62;100881.09;5072841;28;20119;-57
2021/07/24 06:10:05;;;;;;;18.00;12.18;;;;;;;17.66;70.29;100881.59;5073585;28;20047;-59
2021/07/24 06:12:33;;;;;;;15.35;10.70;;;;;;;17.70;70.49;100884.53;5073539;28;20055;-58
2021/07/24 06:15:01;;;;;;;21.80;11.10;;;;;;;17.71;70.53;100888.13;5073156;28;20495;-58
2021/07/24 06:17:29;;;;;;;15.02;10.32;;;;;;;17.71;70.84;100886.16;5073425;28;20040;-59
2021/07/24 06:19:56;;;;;;;19.20;11.75;;;;;;;17.73;70.75;100881.16;5073380;28;20040;-55
2021/07/24 06:22:24;;;;;;;15.02;10.30;;;;;;;17.74;70.48;100882.78;5073184;28;20055;-57
2021/07/24 06:24:51;;;;;;;15.98;10.75;;;;;;;17.75;70.97;100875.31;5073072;28;20053;-57
2021/07/24 06:27:19;;;;;;;17.50;10.85;;;;;;;17.70;71.11;100876.25;5073482;28;20143;-58
2021/07/24 06:29:47;;;;;;;14.80;10.52;;;;;;;17.70;71.04;100868.00;5073050;28;20131;-56
2021/07/24 06:32:15;;;;;;;20.30;11.07;;;;;;;17.72;71.14;100862.97;5073394;28;20116;-58
2021/07/24 06:34:43;;;;;;;17.90;11.93;;;;;;;17.74;70.83;100854.41;5073254;28;20044;-60
2021/07/24 06:37:10;;;;;;;16.83;11.20;;;;;;;17.74;71.13;100844.19;5073410;28;20055;-58
2021/07/24 06:39:40;;;;;;;15.55;10.82;;;;;;;17.74;71.21;100849.69;5055438;28;20044;-60
2021/07/24 06:42:07;;;;;;;19.10;11.38;;;;;;;17.77;71.13;100843.56;5073459;28;20041;-58
2021/07/24 06:44:35;;;;;;;22.23;13.88;;;;;;;17.71;71.53;100842.06;5073425;28;20408;-57
2021/07/24 06:47:02;;;;;;;18.20;12.40;;;;;;;17.65;71.71;100841.41;5073205;28;20048;-57
2021/07/24 06:49:30;;;;;;;18.92;11.50;;;;;;;17.67;71.56;100846.59;5073335;28;20041;-58
2021/07/24 06:51:57;;;;;;;17.77;10.50;;;;;;;17.68;71.84;100842.72;5068284;28;20123;-57
2021/07/24 06:54:25;;;;;;;16.60;10.55;;;;;;;17.63;72.04;100840.06;5073071;28;20055;-54
2021/07/24 06:56:52;;;;;;;18.45;12.45;;;;;;;17.66;72.01;100842.22;5073320;28;20127;-56
2021/07/24 06:59:20;;;;;;;17.67;11.07;;;;;;;17.66;72.15;100840.25;5073532;28;20052;-57
2021/07/24 07:01:48;;;;;;;20.38;12.38;;;;;;;17.60;72.66;100841.50;5073186;28;20056;-57
2021/07/24 07:04:15;;;;;;;17.73;12.15;;;;;;;17.57;72.79;100844.91;5072756;28;20056;-57
2021/07/24 07:06:43;;;;;;;15.32;11.10;;;;;;;17.62;72.76;100835.69;5072474;28;20131;-57
2021/07/24 07:09:10;;;;;;;18.65;12.02;;;;;;;17.63;72.53;100837.31;5073056;28;20376;-57
2021/07/24 07:11:38;;;;;;;17.67;12.68;;;;;;;17.63;72.58;100826.28;5072858;28;20048;-57
2021/07/24 07:14:05;;;;;;;19.27;12.70;;;;;;;17.66;72.66;100825.69;5072692;28;20055;-58
2021/07/24 07:16:33;;;;;;;20.42;12.55;;;;;;;17.70;72.98;100815.63;5072598;28;20068;-60
2021/07/24 07:19:02;;;;;;;21.77;13.60;;;;;;;17.67;73.06;100810.75;5054437;28;20457;-57
2021/07/24 07:21:29;;;;;;;16.85;12.10;;;;;;;17.69;73.17;100808.50;5054481;28;20040;-57
2021/07/24 07:23:57;;;;;;;22.35;13.07;;;;;;;17.72;73.12;100804.31;5072761;28;20491;-58
2021/07/24 07:26:25;;;;;;;22.15;13.48;;;;;;;17.78;72.82;100795.59;5072987;28;20398;-57
2021/07/24 07:28:54;;;;;;;22.23;13.95;;;;;;;17.78;72.95;100795.59;5072187;28;20065;-57
2021/07/24 07:31:22;;;;;;;16.30;11.68;;;;;;;17.82;72.73;100785.59;5054756;28;20521;-57
2021/07/24 07:33:50;;;;;;;19.05;12.05;;;;;;;17.85;72.82;100782.19;5072344;28;20044;-57
2021/07/24 07:36:17;;;;;;;19.40;12.30;;;;;;;17.84;72.77;100772.28;5072003;28;20036;-57
2021/07/24 07:38:45;;;;;;;17.27;12.02;;;;;;;17.93;72.62;100772.31;5087610;28;20049;-57
2021/07/24 07:41:13;;;;;;;18.75;11.98;;;;;;;18.01;72.25;100770.72;5072348;28;20052;-57
2021/07/24 07:43:40;;;;;;;19.25;12.73;;;;;;;18.06;72.13;100770.56;5072166;28;20044;-57
2021/07/24 07:46:08;;;;;;;16.88;12.10;;;;;;;18.14;71.98;100763.47;5071859;28;20402;-57
2021/07/24 07:48:36;;;;;;;15.77;11.27;;;;;;;18.18;71.99;100770.75;5072157;28;20055;-57
2021/07/24 07:51:06;;;;;;;19.02;11.93;;;;;;;18.22;71.79;100766.25;5071717;28;20045;-57
2021/07/24 07:53:34;;;;;;;17.38;11.90;;;;;;;18.28;71.38;100764.16;5071792;28;20490;-56
2021/07/24 07:56:02;;;;;;;14.90;11.32;;;;;;;18.34;71.65;100757.34;5071900;28;20094;-56
2021/07/24 07:58:29;;;;;;;16.63;12.00;;;;;;;18.40;71.95;100749.72;5072017;28;20363;-56
2021/07/24 08:00:57;;;;;;;18.23;10.70;;;;;;;18.48;71.68;100763.53;5071853;28;20552;-57
2021/07/24 08:03:27;;;;;;;18.38;12.00;;;;;;;18.56;71.28;100764.66;5072345;28;20056;-56
2021/07/24 08:05:55;;;;;;;19.42;12.00;;;;;;;18.63;70.94;100758.69;5075971;28;20062;-56
2021/07/24 08:08:23;;;;;;;18.55;13.48;;;;;;;18.69;71.01;100763.72;5076767;28;20044;-57
2021/07/24 08:10:50;;;;;;;18.05;12.95;;;;;;;18.76;70.80;100756.88;5076517;28;20039;-56
2021/07/24 08:13:18;;;;;;;21.63;14.02;;;;;;;18.78;70.71;100755.44;5076539;28;20051;-56
2021/07/24 08:15:50;;;;;;;20.63;13.60;;;;;;;18.83;71.05;100747.03;5076918;28;20055;-55
2021/07/24 08:18:17;;;;;;;25.17;14.23;;;;;;;18.87;71.03;100742.47;5076815;28;20040;-58
2021/07/24 08:20:45;;;;;;;19.80;13.23;;;;;;;18.94;70.90;100744.72;5075813;28;20419;-55
2021/07/24 08:23:13;;;;;;;18.83;12.48;;;;;;;18.96;70.54;100738.91;5076336;28;20052;-55
2021/07/24 08:25:42;;;;;;;18.83;12.63;;;;;;;18.99;70.76;100728.00;5076078;28;20119;-56
2021/07/24 08:28:11;;;;;;;18.95;12.32;;;;;;;19.04;70.62;100740.81;5076261;28;20049;-55
2021/07/24 08:30:38;;;;;;;16.90;12.02;;;;;;;19.07;70.42;100741.00;5075914;28;20063;-56
2021/07/24 08:33:06;;;;;;;18.15;13.13;;;;;;;19.10;70.38;100747.81;5057954;28;20046;-57
2021/07/24 08:35:33;;;;;;;19.92;13.35;;;;;;;19.13;69.88;100749.91;5041005;28;20060;-56
2021/07/24 08:38:01;;;;;;;19.45;13.20;;;;;;;19.16;70.21;100749.25;5076097;28;20124;-57
2021/07/24 08:40:29;;;;;;;17.88;11.95;;;;;;;19.19;70.22;100751.34;5076129;28;20040;-57
2021/07/24 08:43:03;;;;;;;17.33;11.07;;;;;;;19.23;70.24;100754.28;5075023;28;20036;-57
2021/07/24 08:45:31;;;;;;;17.98;11.73;;;;;;;19.26;69.86;100764.66;5075688;28;20047;-55
2021/07/24 08:47:59;;;;;;;20.50;13.48;;;;;;;19.26;69.80;100759.94;5040832;28;20037;-54
2021/07/24 08:50:27;;;;;;;20.85;13.23;;;;;;;19.27;69.48;100755.25;5075487;28;20043;-56
2021/07/24 08:52:56;;;;;;;19.85;12.88;;;;;;;19.29;69.94;100764.00;5075209;28;20506;-54
2021/07/24 08:55:24;;;;;;;18.40;11.82;;;;;;;19.31;70.18;100757.03;5070569;28;20044;-55
2021/07/24 08:57:52;;;;;;;15.40;10.27;;;;;;;19.33;70.28;100757.50;5071011;28;20074;-59
2021/07/24 09:00:22;;;;;;;16.60;12.30;;;;;;;19.36;70.28;100753.25;5056182;28;20037;-57
2021/07/24 09:02:54;;;;;;;17.08;12.00;;;;;;;19.40;70.37;100765.28;5070858;28;20041;-57
2021/07/24 09:05:22;;;;;;;17.50;12.63;;;;;;;19.46;70.13;100761.22;5073072;28;20052;-56
2021/07/24 09:07:51;;;;;;;17.02;11.02;;;;;;;19.45;70.19;100756.81;5074894;28;20040;-57
2021/07/24 09:10:20;;;;;;;18.63;12.48;;;;;;;19.47;70.55;100768.34;5075640;28;20087;-55
2021/07/24 09:12:55;;;;;;;17.13;11.63;;;;;;;19.49;70.72;100768.84;5075069;28;20395;-56
2021/07/24 09:15:23;;;;;;;18.27;12.15;;;;;;;19.51;70.78;100771.28;5073628;28;20110;-56
2021/07/24 09:17:51;;;;;;;17.20;11.88;;;;;;;19.54;70.76;100776.94;5074570;28;20036;-57
2021/07/24 09:20:23;;;;;;;15.63;11.20;;;;;;;19.56;70.28;100777.44;5075287;28;20479;-56
2021/07/24 09:22:51;;;;;;;13.98;9.10;;;;;;;19.56;69.94;100788.50;5074412;28;20090;-57
2021/07/24 09:25:20;;;;;;;19.25;13.32;;;;;;;19.57;70.06;100786.53;5070609;28;20056;-56
2021/07/24 09:27:56;;;;;;;16.75;11.65;;;;;;;19.57;70.18;100790.09;5056715;28;20048;-57
2021/07/24 09:30:24;;;;;;;20.23;11.48;;;;;;;19.61;70.05;100797.75;5056606;28;20052;-57
2021/07/24 09:33:07;;;;;;;17.55;11.15;;;;;;;19.62;69.70;100811.22;5073721;28;20044;-56
2021/07/24 09:35:40;;;;;;;14.43;10.07;;;;;;;19.64;69.49;100816.44;5074085;28;20058;-57
2021/07/24 09:38:14;;;;;;;25.35;15.45;;;;;;;19.67;70.30;100826.81;5074373;28;20036;-57
2021/07/24 09:40:46;;;;;;;20.85;13.68;;;;;;;19.70;70.30;100818.72;5074394;28;20075;-56
2021/07/24 09:43:42;;;;;;;19.95;13.20;;;;;;;19.72;69.70;100823.91;5074384;28;20047;-57
2021/07/24 09:46:17;;;;;;;20.50;13.30;;;;;;;19.71;69.29;100825.06;5073885;28;20420;-56
2021/07/24 09:48:48;;;;;;;23.30;13.70;;;;;;;19.72;69.52;100823.91;5074512;28;20040;-56
2021/07/24 09:51:33;;;;;;;22.02;13.98;;;;;;;19.74;70.12;100816.09;5089561;28;20402;-56
2021/07/24 09:54:01;;;;;;;19.13;10.80;;;;;;;19.76;69.90;100822.13;5073939;28;20075;-58
2021/07/24 09:56:40;;;;;;;18.58;12.82;;;;;;;19.77;69.86;100815.44;5073698;28;20045;-57
2021/07/24 09:59:18;;;;;;;24.45;13.85;;;;;;;19.79;70.27;100815.91;5074235;28;20457;-57
2021/07/24 10:01:58;;;;;;;19.40;13.23;;;;;;;19.80;69.85;100812.03;5073310;28;20040;-57
2021/07/24 10:04:38;;;;;;;23.58;14.70;;;;;;;19.80;69.77;100812.03;5074093;28;20503;-52
2021/07/24 10:07:28;;;;;;;16.95;12.60;;;;;;;19.79;69.95;100808.47;5074200;28;20037;-57
2021/07/24 10:09:57;;;;;;;23.38;13.98;;;;;;;19.79;70.00;100805.69;5089456;28;20044;-57
2021/07/24 10:12:24;;;;;;;21.80;12.88;;;;;;;19.81;69.87;100801.78;5074813;28;20036;-52
2021/07/24 10:14:52;;;;;;;19.35;14.80;;;;;;;19.81;69.89;100801.78;5074559;28;20056;-55
2021/07/24 10:17:20;;;;;;;28.02;14.40;;;;;;;19.82;70.43;100790.41;5075691;28;20226;-54
2021/07/24 10:19:48;;;;;;;17.73;12.93;;;;;;;19.85;70.51;100792.50;5075430;28;20048;-53
2021/07/24 10:22:18;;;;;;;17.65;11.32;;;;;;;19.87;69.89;100787.44;5075510;28;20052;-53
2021/07/24 10:24:46;;;;;;;18.17;12.57;;;;;;;19.88;70.32;100786.28;5069451;28;20067;-56
2021/07/24 10:27:18;;;;;;;22.13;14.60;;;;;;;19.92;70.81;100780.91;5075504;28;20629;-51
2021/07/24 10:29:52;;;;;;;23.85;17.42;;;;;;;19.94;70.22;100776.69;5089892;28;20063;-55
2021/07/24 10:32:25;;;;;;;21.60;15.20;;;;;;;19.96;70.65;100768.88;5074124;28;20040;-54
2021/07/24 10:34:54;;;;;;;24.88;14.77;;;;;;;19.99;70.86;100778.44;5089974;28;20052;-56
2021/07/24 10:37:46;;;;;;;17.65;12.85;;;;;;;20.01;70.10;100773.38;5074295;28;20046;-54
2021/07/24 10:40:16;;;;;;;23.55;14.50;;;;;;;20.02;70.70;100783.31;5074597;28;20072;-52
2021/07/24 10:42:47;;;;;;;18.20;13.07;;;;;;;20.05;70.76;100784.59;5074946;28;20048;-54
2021/07/24 10:45:33;;;;;;;17.58;12.60;;;;;;;20.07;70.76;100793.38;5074339;28;20059;-53
2021/07/24 10:48:16;;;;;;;23.95;17.13;;;;;;;20.07;70.44;100788.63;5074348;28;20495;-52
2021/07/24 10:51:00;;;;;;;24.50;13.77;;;;;;;20.08;70.41;100781.94;5074424;28;20044;-54
2021/07/24 10:53:28;;;;;;;21.13;14.57;;;;;;;20.13;70.26;100786.50;5074364;28;20080;-53
2021/07/24 10:55:57;;;;;;;21.40;16.10;;;;;;;20.14;70.50;100802.75;5075011;28;20114;-58
2021/07/24 10:58:26;;;;;;;21.38;15.38;;;;;;;20.17;70.90;100781.91;5072772;28;20031;-57
2021/07/24 11:00:54;;;;;;;19.92;13.27;;;;;;;20.15;69.74;100773.94;5074376;28;20103;-58
2021/07/24 11:03:43;;;;;;;19.33;13.20;;;;;;;20.13;70.54;100779.03;5073149;28;20553;-58
2021/07/24 11:06:32;;;;;;;26.13;15.85;;;;;;;20.17;70.78;100771.66;5073581;28;20064;-57
2021/07/24 11:09:01;;;;;;;26.75;16.33;;;;;;;20.20;70.63;100772.94;5073348;28;20098;-53
2021/07/24 11:11:45;;;;;;;21.77;13.65;;;;;;;20.19;70.26;100769.38;5073501;28;20127;-53
2021/07/24 11:14:41;;;;;;;22.73;15.32;;;;;;;20.18;70.07;100772.50;5072544;28;20044;-54
2021/07/24 11:17:08;;;;;;;22.10;14.82;;;;;;;20.19;70.53;100779.63;5068684;28;20051;-52
2021/07/24 11:19:49;;;;;;;18.98;14.15;;;;;;;20.18;70.25;100783.56;5073375;28;20048;-53
2021/07/24 11:22:17;;;;;;;14.55;10.38;;;;;;;20.18;70.27;100795.44;5073462;28;20066;-57
2021/07/24 11:24:51;;;;;;;17.67;11.52;;;;;;;20.17;69.94;100792.97;5055913;28;20048;-55
2021/07/24 11:30:04;;;;;;;18.50;13.57;;;;;;;20.16;70.77;100796.91;5073308;28;20501;-55